Time;durP1;ratioP1;P1;durP2;ratioP2;P2;SDS_P1;SDS_P2;PMS_P1;PMS_P2;Temp;Humidity;BMP_temperature;BMP_pressure;BME280_temperature;BME280_humidity;BME280_pressure;Samples;Min_cycle;Max_cycle;Signal;HPM_P1;HPM_P2
2021/03/19 00:00:33;;;;;;;2.58;1.63;;;17.40;41.60;;;;;;5084497;28;20221;-82
2021/03/19 00:03:08;;;;;;;3.83;1.77;;;17.40;41.60;;;;;;5084719;28;20172;-82
2021/03/19 00:05:35;;;;;;;2.88;1.50;;;17.40;41.70;;;;;;5101531;28;20162;-82
2021/03/19 00:08:02;;;;;;;2.83;1.70;;;17.40;41.60;;;;;;5101320;28;20594;-82
2021/03/19 00:10:32;;;;;;;3.35;1.60;;;17.40;41.40;;;;;;5084088;28;20158;-82
2021/03/19 00:13:01;;;;;;;3.03;1.70;;;17.40;41.40;;;;;;5084862;28;20153;-81
2021/03/19 00:15:36;;;;;;;3.53;1.52;;;17.40;41.40;;;;;;5102192;28;20196;-82
2021/03/19 00:18:03;;;;;;;3.13;1.67;;;17.40;41.40;;;;;;5085187;28;20267;-82
2021/03/19 00:20:33;;;;;;;3.00;1.63;;;17.40;41.50;;;;;;5088199;28;20227;-82
2021/03/19 00:23:00;;;;;;;2.45;1.75;;;17.40;41.50;;;;;;5105304;28;20149;-82
2021/03/19 00:25:26;;;;;;;3.42;1.77;;;17.40;41.60;;;;;;5105363;28;20160;-82
2021/03/19 00:28:01;;;;;;;2.72;1.30;;;17.40;41.60;;;;;;5088014;28;20169;-82
2021/03/19 00:30:27;;;;;;;2.60;1.52;;;17.40;41.40;;;;;;5088671;28;20161;-82
2021/03/19 00:32:55;;;;;;;3.88;1.55;;;17.40;41.40;;;;;;5071568;28;20639;-82
2021/03/19 00:35:30;;;;;;;3.42;1.70;;;17.40;41.60;;;;;;5088046;28;20223;-82
2021/03/19 00:37:58;;;;;;;2.60;1.42;;;17.40;41.50;;;;;;5088073;28;20199;-82
2021/03/19 00:40:24;;;;;;;3.97;1.70;;;17.40;42.30;;;;;;5105408;28;20612;-82
2021/03/19 00:42:52;;;;;;;2.40;1.48;;;17.40;41.50;;;;;;5105192;28;20153;-82
2021/03/19 00:45:21;;;;;;;4.55;1.70;;;17.40;41.50;;;;;;5088053;28;20176;-82
2021/03/19 00:47:52;;;;;;;3.30;1.33;;;17.40;41.50;;;;;;5104428;28;20153;-82
2021/03/19 00:50:26;;;;;;;4.35;1.70;;;17.40;41.60;;;;;;5070514;28;20177;-82
2021/03/19 00:52:56;;;;;;;4.07;1.67;;;17.40;41.60;;;;;;5088111;28;20648;-82
2021/03/19 00:55:23;;;;;;;2.20;1.63;;;17.40;41.40;;;;;;5087258;28;20695;-82
2021/03/19 00:57:53;;;;;;;3.55;1.50;;;17.40;41.60;;;;;;5088022;28;20169;-82
2021/03/19 01:00:27;;;;;;;2.35;1.63;;;17.40;41.60;;;;;;5087029;28;20169;-82
2021/03/19 01:02:52;;;;;;;3.95;1.70;;;17.40;41.50;;;;;;5087366;28;20165;-82
2021/03/19 01:05:19;;;;;;;3.05;1.60;;;17.40;41.40;;;;;;5088305;28;20169;-82
2021/03/19 01:07:54;;;;;;;3.03;1.38;;;17.40;41.50;;;;;;5088589;28;20173;-82
2021/03/19 01:10:24;;;;;;;4.35;1.90;;;17.40;42.10;;;;;;5087075;28;20165;-82
2021/03/19 01:12:51;;;;;;;2.85;1.58;;;17.40;41.40;;;;;;5104211;28;20210;-82
2021/03/19 01:15:22;;;;;;;2.63;1.33;;;17.40;41.50;;;;;;5087417;28;20205;-82
2021/03/19 01:17:57;;;;;;;3.13;1.45;;;17.40;41.60;;;;;;5087087;28;20161;-82
2021/03/19 01:20:38;;;;;;;3.85;1.90;;;17.30;41.60;;;;;;5103916;28;20159;-82
2021/03/19 01:23:13;;;;;;;5.03;1.60;;;17.30;41.70;;;;;;5087285;28;20200;-82
2021/03/19 01:25:41;;;;;;;3.28;1.70;;;17.30;41.60;;;;;;5087191;28;20268;-82
2021/03/19 01:28:16;;;;;;;2.38;1.60;;;17.30;41.50;;;;;;5087321;28;20169;-82
2021/03/19 01:30:47;;;;;;;3.22;1.58;;;17.30;41.50;;;;;;5087790;28;20223;-82
2021/03/19 01:33:14;;;;;;;2.65;1.33;;;17.30;41.50;;;;;;5085878;28;20161;-82
2021/03/19 01:35:41;;;;;;;3.47;1.40;;;17.40;41.60;;;;;;5086604;28;20200;-82
2021/03/19 01:38:10;;;;;;;4.90;1.83;;;17.30;41.60;;;;;;5086596;28;20162;-82
2021/03/19 01:40:39;;;;;;;3.40;1.55;;;17.30;41.50;;;;;;5086485;28;20189;-82
2021/03/19 01:43:19;;;;;;;3.65;1.67;;;17.30;41.50;;;;;;5103563;28;20165;-82
2021/03/19 01:46:23;;;;;;;3.70;1.67;;;17.30;41.70;;;;;;5086865;28;20652;-82
2021/03/19 01:49:35;;;;;;;2.50;1.40;;;17.30;41.80;;;;;;5088374;28;20149;-82
2021/03/19 01:52:46;;;;;;;2.55;1.60;;;17.30;41.70;;;;;;5087459;28;20162;-82
2021/03/19 01:55:50;;;;;;;2.35;1.50;;;17.30;41.80;;;;;;5087345;28;20547;-82
2021/03/19 01:58:55;;;;;;;2.78;1.60;;;17.30;41.70;;;;;;5087811;28;20192;-82
2021/03/19 02:02:01;;;;;;;2.45;1.70;;;17.30;41.70;;;;;;5088267;28;20169;-82
2021/03/19 02:05:07;;;;;;;2.58;1.40;;;17.30;41.70;;;;;;5087658;28;20198;-82
2021/03/19 02:08:12;;;;;;;2.85;1.70;;;17.30;41.50;;;;;;5087624;28;20672;-82
2021/03/19 02:11:17;;;;;;;3.08;1.52;;;17.30;41.70;;;;;;5086940;28;20181;-82
2021/03/19 02:14:21;;;;;;;2.72;1.40;;;17.30;41.60;;;;;;5086184;28;20161;-81
2021/03/19 02:17:25;;;;;;;2.65;1.52;;;17.20;41.80;;;;;;5087099;28;20209;-82
2021/03/19 02:20:30;;;;;;;2.88;1.40;;;17.20;41.80;;;;;;5087940;28;20168;-82
2021/03/19 02:23:35;;;;;;;1.95;1.40;;;17.20;41.70;;;;;;5086738;28;20566;-82
2021/03/19 02:26:40;;;;;;;2.47;1.52;;;17.20;41.70;;;;;;5087117;28;20172;-82
2021/03/19 02:29:43;;;;;;;4.25;1.23;;;17.30;41.70;;;;;;5085665;28;20177;-82
2021/03/19 02:32:26;;;;;;;2.70;1.63;;;17.20;41.80;;;;;;5087527;28;20150;-82
2021/03/19 02:35:17;;;;;;;4.38;1.60;;;17.20;41.70;;;;;;5085664;28;20266;-82
2021/03/19 02:37:45;;;;;;;2.15;1.38;;;17.20;41.70;;;;;;5068318;28;20256;-82
2021/03/19 02:40:16;;;;;;;2.92;1.58;;;17.30;41.70;;;;;;5085561;28;20207;-82
2021/03/19 02:42:42;;;;;;;2.85;1.38;;;17.30;41.70;;;;;;5085316;28;20187;-82
2021/03/19 02:45:14;;;;;;;2.45;1.50;;;17.20;41.60;;;;;;5102321;28;20157;-82
2021/03/19 02:47:41;;;;;;;2.88;1.45;;;17.20;41.80;;;;;;5085482;28;20200;-82
2021/03/19 02:50:07;;;;;;;3.03;1.50;;;17.20;41.70;;;;;;5102576;28;20161;-82
2021/03/19 02:52:37;;;;;;;3.28;1.52;;;17.30;41.60;;;;;;5085758;28;20230;-82
2021/03/19 02:55:14;;;;;;;3.05;1.73;;;17.20;41.80;;;;;;5084796;28;20201;-82
2021/03/19 02:57:41;;;;;;;2.45;1.23;;;17.20;41.70;;;;;;5085340;28;20169;-82
2021/03/19 03:00:11;;;;;;;2.40;1.45;;;17.30;41.50;;;;;;5102283;28;20161;-82
2021/03/19 03:02:39;;;;;;;3.30;1.70;;;17.30;41.60;;;;;;5084240;28;20166;-82
2021/03/19 03:05:07;;;;;;;2.60;1.42;;;17.20;41.90;;;;;;5086865;28;20169;-82
2021/03/19 03:07:42;;;;;;;3.63;1.58;;;17.20;41.90;;;;;;5086255;28;20149;-82
2021/03/19 03:10:12;;;;;;;3.67;1.60;;;17.20;41.70;;;;;;5085467;28;20267;-82
2021/03/19 03:12:40;;;;;;;2.92;1.70;;;17.20;41.70;;;;;;5085123;28;20169;-82
2021/03/19 03:15:13;;;;;;;1.75;1.25;;;17.20;41.70;;;;;;5084636;28;20193;-82
2021/03/19 03:17:49;;;;;;;2.67;1.85;;;17.20;41.70;;;;;;5084811;28;20255;-82
2021/03/19 03:20:30;;;;;;;2.58;1.50;;;17.20;41.70;;;;;;5100757;28;20187;-82
2021/03/19 03:22:56;;;;;;;3.70;1.70;;;17.30;41.70;;;;;;5085227;28;20313;-82
2021/03/19 03:25:25;;;;;;;2.35;1.60;;;17.20;41.60;;;;;;5086410;28;20176;-82
2021/03/19 03:27:53;;;;;;;1.75;1.25;;;17.20;41.60;;;;;;5084817;28;20161;-82
2021/03/19 03:30:27;;;;;;;2.90;1.77;;;17.20;41.50;;;;;;5085224;28;20187;-82
2021/03/19 03:32:57;;;;;;;1.98;1.25;;;17.20;41.60;;;;;;5101804;28;20672;-82
2021/03/19 03:35:24;;;;;;;2.83;1.38;;;17.20;41.70;;;;;;5084683;28;20245;-82
2021/03/19 03:37:53;;;;;;;3.25;1.58;;;17.20;41.60;;;;;;5084214;28;20197;-82
2021/03/19 03:40:32;;;;;;;3.55;1.63;;;17.20;41.60;;;;;;5084420;28;20173;-82
2021/03/19 03:42:58;;;;;;;2.03;1.40;;;17.20;41.70;;;;;;5085466;28;20153;-82
2021/03/19 03:45:33;;;;;;;3.45;2.00;;;17.20;41.60;;;;;;5085281;28;20188;-82
2021/03/19 03:47:59;;;;;;;3.00;1.60;;;17.20;41.60;;;;;;5085172;28;20259;-82
2021/03/19 03:50:26;;;;;;;2.38;1.50;;;17.20;41.70;;;;;;5067977;28;20528;-82
2021/03/19 03:52:56;;;;;;;3.03;1.40;;;17.20;41.70;;;;;;5087080;28;20212;-82
2021/03/19 03:55:25;;;;;;;1.92;1.40;;;17.20;41.60;;;;;;5089017;28;20228;-82
2021/03/19 03:57:52;;;;;;;2.50;1.40;;;17.20;41.60;;;;;;5072543;28;20166;-81
2021/03/19 04:00:21;;;;;;;2.92;1.60;;;17.20;41.60;;;;;;5088590;28;20510;-82
2021/03/19 04:02:49;;;;;;;2.22;1.42;;;17.20;41.80;;;;;;5072776;28;20169;-82
2021/03/19 04:05:24;;;;;;;1.95;1.38;;;17.20;41.70;;;;;;5088134;28;20646;-82
2021/03/19 04:07:52;;;;;;;2.70;1.60;;;17.20;41.60;;;;;;5088212;28;20157;-82
2021/03/19 04:10:19;;;;;;;2.58;1.63;;;17.20;41.50;;;;;;5088307;28;20169;-82
2021/03/19 04:12:45;;;;;;;1.83;1.50;;;17.20;41.80;;;;;;5088689;28;20231;-82
2021/03/19 04:15:12;;;;;;;4.95;1.17;;;17.20;41.80;;;;;;5071778;28;20200;-82
2021/03/19 04:17:39;;;;;;;2.22;1.38;;;17.20;41.60;;;;;;5088045;28;20153;-82
2021/03/19 04:20:07;;;;;;;2.83;1.60;;;17.20;41.60;;;;;;5089100;28;20176;-82
2021/03/19 04:22:38;;;;;;;3.63;1.50;;;17.20;41.80;;;;;;5089421;28;20161;-82
2021/03/19 04:25:09;;;;;;;1.98;1.40;;;17.20;41.70;;;;;;5088219;28;20232;-82
2021/03/19 04:27:44;;;;;;;2.53;1.65;;;17.20;41.60;;;;;;5088627;28;20651;-82
2021/03/19 04:30:18;;;;;;;3.03;1.27;;;17.20;41.70;;;;;;5104939;28;20153;-82
2021/03/19 04:32:54;;;;;;;1.52;1.17;;;17.10;41.60;;;;;;5087918;28;20165;-82
2021/03/19 04:35:22;;;;;;;2.50;1.25;;;17.10;41.70;;;;;;5087962;28;20315;-82
2021/03/19 04:37:59;;;;;;;2.25;1.40;;;17.20;41.50;;;;;;5105028;28;20160;-82
2021/03/19 04:40:26;;;;;;;3.13;1.50;;;17.20;41.60;;;;;;5104369;28;20173;-82
2021/03/19 04:43:01;;;;;;;2.35;1.55;;;17.20;41.70;;;;;;5087705;28;20168;-82
2021/03/19 04:45:28;;;;;;;2.92;1.42;;;17.20;41.70;;;;;;5105275;28;20192;-82
2021/03/19 04:47:56;;;;;;;2.20;1.48;;;17.10;41.60;;;;;;5104640;28;20158;-82
2021/03/19 04:50:25;;;;;;;3.13;1.75;;;17.20;41.70;;;;;;5087998;28;20556;-82
2021/03/19 04:52:56;;;;;;;1.77;1.20;;;17.10;41.60;;;;;;5087854;28;20284;-81
2021/03/19 04:55:24;;;;;;;2.80;1.40;;;17.20;41.70;;;;;;5104429;28;20193;-81
2021/03/19 04:57:52;;;;;;;2.38;1.30;;;17.20;41.60;;;;;;5087550;28;20173;-81
2021/03/19 05:00:21;;;;;;;5.18;1.70;;;17.20;41.50;;;;;;5104198;28;20169;-81
2021/03/19 05:02:50;;;;;;;3.47;1.40;;;17.20;41.60;;;;;;5103683;28;20166;-81
2021/03/19 05:05:28;;;;;;;2.70;1.30;;;17.20;41.30;;;;;;5103174;28;20168;-81
2021/03/19 05:07:56;;;;;;;3.08;1.60;;;17.20;41.30;;;;;;5104081;28;20168;-81
2021/03/19 05:10:25;;;;;;;2.28;1.40;;;17.20;41.20;;;;;;5086705;28;20170;-81
2021/03/19 05:13:01;;;;;;;2.40;1.38;;;17.20;41.40;;;;;;5103446;28;20157;-82
2021/03/19 05:15:32;;;;;;;2.75;1.58;;;17.20;41.10;;;;;;5104310;28;20196;-81
2021/03/19 05:17:59;;;;;;;3.10;1.50;;;17.20;41.00;;;;;;5103695;28;20245;-82
2021/03/19 05:20:27;;;;;;;2.70;1.27;;;17.20;41.00;;;;;;5088314;28;20173;-81
2021/03/19 05:22:55;;;;;;;2.40;1.50;;;17.20;41.00;;;;;;5104595;28;20149;-81
2021/03/19 05:25:25;;;;;;;3.35;1.20;;;17.20;41.10;;;;;;5104362;28;20177;-81
2021/03/19 05:27:53;;;;;;;2.20;1.35;;;17.30;40.70;;;;;;5087395;28;20603;-81
2021/03/19 05:30:26;;;;;;;2.67;1.77;;;17.30;40.60;;;;;;5071118;28;20226;-81
2021/03/19 05:32:54;;;;;;;2.10;1.42;;;17.20;40.80;;;;;;5070610;28;20225;-81
2021/03/19 05:35:27;;;;;;;2.10;1.42;;;17.20;40.80;;;;;;5087918;28;20232;-81
2021/03/19 05:37:56;;;;;;;1.95;1.23;;;17.20;40.50;;;;;;5070528;28;20172;-81
2021/03/19 05:40:53;;;;;;;2.60;1.48;;;17.20;40.70;;;;;;5104060;28;20605;-82
2021/03/19 05:43:21;;;;;;;2.60;1.38;;;17.20;40.60;;;;;;5088036;28;20154;-81
2021/03/19 05:46:01;;;;;;;1.65;1.17;;;17.20;40.60;;;;;;5086702;28;20612;-81
2021/03/19 05:48:46;;;;;;;1.58;1.25;;;17.20;40.60;;;;;;5086696;28;20535;-81
2021/03/19 05:51:20;;;;;;;2.03;1.20;;;17.30;40.10;;;;;;5104061;28;20162;-82
2021/03/19 05:53:54;;;;;;;2.58;1.13;;;17.30;40.50;;;;;;5103938;28;20164;-82
2021/03/19 05:56:22;;;;;;;1.33;0.95;;;17.30;40.30;;;;;;5087006;28;20187;-82
2021/03/19 05:58:49;;;;;;;1.63;1.08;;;17.30;40.00;;;;;;5086281;28;20176;-82
2021/03/19 06:01:24;;;;;;;2.38;1.30;;;17.30;40.00;;;;;;5088027;28;20160;-82
2021/03/19 06:03:49;;;;;;;1.63;1.23;;;17.30;39.90;;;;;;5087497;28;20160;-81
2021/03/19 06:06:17;;;;;;;3.65;1.40;;;17.30;40.00;;;;;;5069282;28;20165;-81
2021/03/19 06:08:45;;;;;;;1.85;1.20;;;17.30;39.90;;;;;;5081189;28;20170;-82
2021/03/19 06:12:13;;;;;;;1.77;1.25;;;17.40;39.60;;;;;;5050793;28;20170;-82
2021/03/19 06:14:49;;;;;;;2.13;1.17;;;17.40;39.60;;;;;;5024410;28;20201;-82
2021/03/19 06:17:44;;;;;;;2.22;1.30;;;17.40;39.60;;;;;;5008480;28;20222;-82
2021/03/19 06:20:56;;;;;;;2.00;1.02;;;17.40;39.50;;;;;;5025655;28;20187;-81
2021/03/19 06:23:37;;;;;;;2.55;1.30;;;17.40;39.40;;;;;;5008434;28;20190;-82
2021/03/19 06:26:29;;;;;;;2.25;1.35;;;17.40;39.50;;;;;;4976381;28;20205;-81
2021/03/19 06:32:32;;;;;;;1.40;0.90;;;17.30;39.50;;;;;;5025190;28;20166;-82
2021/03/19 06:36:00;;;;;;;1.35;1.13;;;17.30;39.30;;;;;;4992240;28;20233;-82
2021/03/19 06:39:03;;;;;;;2.35;1.20;;;17.40;39.20;;;;;;5025102;28;20227;-81
2021/03/19 06:41:38;;;;;;;1.83;1.13;;;17.40;39.10;;;;;;4992665;28;20167;-81
2021/03/19 06:44:33;;;;;;;1.20;1.10;;;17.40;39.10;;;;;;4992529;28;20186;-81
2021/03/19 06:47:56;;;;;;;1.73;1.00;;;17.40;38.80;;;;;;5007255;28;20179;-81
2021/03/19 06:50:28;;;;;;;1.55;1.10;;;17.40;39.00;;;;;;5024257;28;20215;-81
2021/03/19 06:53:40;;;;;;;1.38;0.95;;;17.50;39.00;;;;;;5082315;28;20181;-81
2021/03/19 06:56:20;;;;;;;1.52;1.00;;;17.50;39.40;;;;;;5066499;28;20216;-81
2021/03/19 06:59:20;;;;;;;1.40;1.00;;;17.50;39.40;;;;;;5050478;28;20149;-80
2021/03/19 07:02:21;;;;;;;1.73;1.10;;;17.40;39.20;;;;;;5051727;28;20166;-81
2021/03/19 07:05:08;;;;;;;1.60;1.15;;;17.50;39.20;;;;;;5091978;28;20179;-80
2021/03/19 07:07:54;;;;;;;1.83;1.10;;;17.40;39.00;;;;;;5067728;28;20158;-81
2021/03/19 07:10:32;;;;;;;1.83;0.95;;;17.50;38.80;;;;;;5082677;28;20182;-81
2021/03/19 07:13:35;;;;;;;1.17;1.08;;;17.60;38.70;;;;;;5083058;28;20204;-81
2021/03/19 07:16:14;;;;;;;1.30;1.00;;;17.60;38.50;;;;;;5065707;28;20291;-81
2021/03/19 07:19:12;;;;;;;1.50;0.90;;;17.60;38.30;;;;;;5048076;28;20165;-81
2021/03/19 07:21:53;;;;;;;2.10;1.00;;;17.50;38.30;;;;;;5066105;28;20158;-82
2021/03/19 07:24:45;;;;;;;1.42;1.00;;;17.50;38.30;;;;;;5066388;28;20161;-82
2021/03/19 07:27:48;;;;;;;1.23;0.95;;;17.50;38.30;;;;;;5064624;28;20168;-82
2021/03/19 07:30:27;;;;;;;2.00;1.00;;;17.60;38.20;;;;;;5081645;28;20636;-81
2021/03/19 07:33:03;;;;;;;1.85;0.80;;;17.60;38.30;;;;;;5065191;28;20169;-82
2021/03/19 07:35:44;;;;;;;1.88;1.00;;;17.60;38.10;;;;;;5081209;28;20315;-82
2021/03/19 07:38:13;;;;;;;1.95;0.95;;;17.50;38.00;;;;;;5049347;28;20154;-82
2021/03/19 07:40:44;;;;;;;1.23;1.00;;;17.60;37.80;;;;;;5066441;28;20155;-82
2021/03/19 07:50:46;;;;;;;1.73;1.00;;;17.60;37.60;;;;;;5044369;28;20678;-82
2021/03/19 07:53:25;;;;;;;1.80;0.90;;;17.60;37.50;;;;;;5005118;28;20184;-82
2021/03/19 07:56:04;;;;;;;2.08;0.93;;;17.60;38.40;;;;;;5004293;28;20219;-81
2021/03/19 07:59:06;;;;;;;1.52;1.15;;;17.70;37.60;;;;;;4987157;28;20551;-81
2021/03/19 08:01:55;;;;;;;1.65;1.13;;;17.70;37.60;;;;;;4968777;28;20184;-82
2021/03/19 08:04:47;;;;;;;2.97;1.10;;;17.70;37.60;;;;;;4968575;28;20184;-82
2021/03/19 08:07:23;;;;;;;1.27;0.93;;;17.60;37.60;;;;;;4983692;28;20228;-82
2021/03/19 08:09:55;;;;;;;1.95;1.00;;;17.60;37.50;;;;;;4984579;28;20161;-82
2021/03/19 08:12:51;;;;;;;2.35;0.80;;;17.70;37.30;;;;;;4968124;28;20157;-82
2021/03/19 08:15:35;;;;;;;3.70;1.10;;;17.70;37.40;;;;;;4968339;28;20216;-81
2021/03/19 08:18:18;;;;;;;3.78;1.05;;;17.60;37.50;;;;;;4968665;28;20275;-82
2021/03/19 08:20:50;;;;;;;3.13;1.00;;;17.60;37.30;;;;;;4967472;28;20244;-80
2021/03/19 08:23:24;;;;;;;1.30;1.02;;;17.70;37.20;;;;;;4996441;28;20231;-81
2021/03/19 08:26:09;;;;;;;1.00;0.68;;;17.70;37.30;;;;;;5007112;28;20222;-80
2021/03/19 08:29:13;;;;;;;2.00;0.90;;;17.80;37.20;;;;;;5067072;28;20612;-82
2021/03/19 08:31:45;;;;;;;1.52;1.02;;;17.70;36.70;;;;;;5081695;28;20563;-82
2021/03/19 08:34:39;;;;;;;1.38;0.80;;;17.70;36.80;;;;;;5047122;28;20316;-82
2021/03/19 08:37:09;;;;;;;1.27;0.82;;;17.70;36.80;;;;;;5048842;28;20217;-82
2021/03/19 08:39:44;;;;;;;1.80;0.98;;;17.70;36.80;;;;;;5050271;28;20161;-82
2021/03/19 08:42:32;;;;;;;3.30;1.00;;;17.70;36.50;;;;;;5051035;28;20174;-82
2021/03/19 08:45:03;;;;;;;3.58;1.20;;;17.70;36.70;;;;;;5052497;28;20233;-82
2021/03/19 08:47:44;;;;;;;1.55;1.13;;;17.70;36.90;;;;;;5037503;28;20162;-82
2021/03/19 08:50:16;;;;;;;1.50;0.90;;;17.70;36.80;;;;;;5066823;28;20150;-84
2021/03/19 08:53:18;;;;;;;1.25;0.82;;;17.70;36.80;;;;;;5079278;28;20170;-82
2021/03/19 08:56:04;;;;;;;1.35;1.00;;;17.70;36.60;;;;;;5074997;28;20395;-81
2021/03/19 08:58:52;;;;;;;2.22;1.00;;;17.70;36.60;;;;;;5088912;28;20198;-82
2021/03/19 09:01:53;;;;;;;1.13;0.82;;;17.70;36.50;;;;;;5053151;28;20502;-81
2021/03/19 09:04:38;;;;;;;3.38;1.13;;;17.70;36.40;;;;;;5069757;28;20154;-82
2021/03/19 09:07:33;;;;;;;1.20;0.98;;;17.80;36.40;;;;;;5052068;28;20298;-82
2021/03/19 09:10:00;;;;;;;1.00;0.85;;;17.80;36.20;;;;;;5058345;28;20269;-81
2021/03/19 09:12:56;;;;;;;1.73;1.20;;;17.80;36.20;;;;;;5052230;28;20173;-82
2021/03/19 09:15:30;;;;;;;2.00;1.17;;;17.80;36.00;;;;;;5058526;28;20213;-82
2021/03/19 09:18:10;;;;;;;1.42;0.80;;;17.80;36.20;;;;;;5052943;28;20175;-81
2021/03/19 09:20:59;;;;;;;1.23;0.80;;;17.80;36.70;;;;;;5086399;28;20162;-79
2021/03/19 09:23:29;;;;;;;1.70;1.00;;;17.80;36.10;;;;;;5073481;28;20146;-82
2021/03/19 09:26:41;;;;;;;3.60;0.93;;;17.70;36.20;;;;;;5076651;28;20169;-81
2021/03/19 09:29:13;;;;;;;1.83;1.00;;;17.60;36.30;;;;;;5077209;28;20181;-81
2021/03/19 09:31:59;;;;;;;1.70;0.80;;;17.70;36.20;;;;;;5075551;28;20151;-82
2021/03/19 09:34:46;;;;;;;2.97;0.80;;;17.70;36.20;;;;;;5060754;28;20153;-81
2021/03/19 09:37:35;;;;;;;1.35;0.90;;;17.70;36.20;;;;;;5072891;28;20625;-80
2021/03/19 09:40:19;;;;;;;1.30;0.80;;;17.70;35.80;;;;;;5095638;28;20160;-81
2021/03/19 09:42:52;;;;;;;1.00;0.75;;;17.60;36.20;;;;;;5099274;28;20174;-82
2021/03/19 09:45:35;;;;;;;1.50;0.88;;;17.60;36.20;;;;;;5097673;28;20169;-81
2021/03/19 09:48:20;;;;;;;1.55;0.90;;;17.60;36.20;;;;;;5082314;28;20517;-81
2021/03/19 09:51:08;;;;;;;1.35;0.73;;;17.60;35.90;;;;;;5065367;28;20607;-82
2021/03/19 09:53:46;;;;;;;1.67;1.10;;;17.60;35.90;;;;;;5050981;28;20150;-82
2021/03/19 09:56:23;;;;;;;2.22;0.90;;;17.60;35.80;;;;;;5047299;28;20224;-81
2021/03/19 09:58:54;;;;;;;1.42;0.90;;;17.60;36.00;;;;;;5064591;28;20180;-82
2021/03/19 10:01:58;;;;;;;1.30;0.85;;;17.60;36.00;;;;;;5048838;28;20165;-81
2021/03/19 10:04:42;;;;;;;0.95;0.73;;;17.60;35.80;;;;;;5098445;28;20168;-81
2021/03/19 11:13:49;;;;;;;1.25;1.05;;;17.90;34.50;;;;;;5106179;23;20235;-81
2021/03/19 11:16:38;;;;;;;2.92;1.20;;;17.90;34.60;;;;;;4995982;28;20211;-81
2021/03/19 11:19:15;;;;;;;3.38;1.80;;;18.00;34.80;;;;;;4995408;28;20172;-81
2021/03/19 11:22:14;;;;;;;2.17;1.38;;;18.00;35.00;;;;;;5012510;28;20172;-80
2021/03/19 11:24:41;;;;;;;3.75;1.63;;;18.00;35.50;;;;;;5006364;28;20199;-81
2021/03/19 11:27:10;;;;;;;3.88;1.80;;;18.00;36.30;;;;;;5010580;28;20541;-81
2021/03/19 11:29:37;;;;;;;5.53;2.92;;;18.00;36.30;;;;;;5010994;28;20164;-81
2021/03/19 11:32:17;;;;;;;2.35;1.70;;;17.90;36.40;;;;;;5014521;28;20265;-82
2021/03/19 11:34:46;;;;;;;7.88;3.25;;;17.80;36.70;;;;;;5010918;28;20164;-82
2021/03/19 11:37:23;;;;;;;3.90;2.47;;;17.80;37.00;;;;;;5014415;28;20203;-81
2021/03/19 11:40:30;;;;;;;4.93;2.35;;;17.70;37.10;;;;;;5011995;28;20152;-82
2021/03/19 11:43:00;;;;;;;4.72;2.40;;;17.70;37.00;;;;;;5027443;28;20154;-81
2021/03/19 11:45:41;;;;;;;7.63;3.38;;;17.60;37.30;;;;;;5010688;28;20267;-81
2021/03/19 11:48:30;;;;;;;4.57;2.40;;;17.60;37.60;;;;;;5014564;28;20175;-81
2021/03/19 11:51:21;;;;;;;3.58;2.08;;;17.60;37.40;;;;;;5012974;28;20219;-81
2021/03/19 11:54:14;;;;;;;2.20;1.33;;;17.50;37.50;;;;;;5030095;28;20174;-82
2021/03/19 11:56:41;;;;;;;3.33;1.70;;;17.50;37.30;;;;;;4967668;28;20212;-81
2021/03/19 11:59:10;;;;;;;3.90;2.05;;;17.50;37.20;;;;;;4953643;28;20192;-80
2021/03/19 12:01:38;;;;;;;2.75;1.50;;;17.50;38.40;;;;;;4930248;28;20585;-81
2021/03/19 12:04:20;;;;;;;3.03;1.48;;;17.40;38.20;;;;;;4966673;28;20191;-81
2021/03/19 12:06:47;;;;;;;2.85;1.60;;;17.40;38.00;;;;;;4955676;28;20195;-81
2021/03/19 12:09:15;;;;;;;2.28;1.27;;;17.40;37.90;;;;;;4954549;28;20283;-81
2021/03/19 12:11:41;;;;;;;2.30;1.38;;;17.40;37.20;;;;;;4953276;28;20172;-81
2021/03/19 12:14:15;;;;;;;5.22;1.60;;;17.40;37.30;;;;;;4955627;28;20216;-81
2021/03/19 12:16:44;;;;;;;2.25;1.63;;;17.40;37.40;;;;;;4956780;29;20240;-81
2021/03/19 12:19:10;;;;;;;4.47;1.67;;;17.40;38.00;;;;;;4922476;29;20166;-80
2021/03/19 12:21:38;;;;;;;5.40;1.50;;;17.40;37.10;;;;;;4951531;28;20180;-80
2021/03/19 12:24:04;;;;;;;2.47;1.35;;;17.60;36.80;;;;;;4971700;28;20165;-79
2021/03/19 12:26:33;;;;;;;3.10;1.60;;;17.50;36.80;;;;;;4970467;28;20240;-80
2021/03/19 12:28:59;;;;;;;5.13;2.10;;;17.60;37.30;;;;;;4954971;28;20232;-79
2021/03/19 12:31:31;;;;;;;3.55;1.73;;;17.50;37.10;;;;;;4970436;28;20204;-80
2021/03/19 12:33:57;;;;;;;4.50;1.67;;;17.60;36.70;;;;;;4983497;28;20616;-80
2021/03/19 12:36:26;;;;;;;3.08;1.73;;;17.60;36.70;;;;;;4989888;28;20298;-80
2021/03/19 12:38:52;;;;;;;3.58;1.77;;;17.60;36.50;;;;;;4989881;28;20195;-80
2021/03/19 12:41:22;;;;;;;2.72;1.50;;;17.60;36.80;;;;;;4988797;28;20167;-80
2021/03/19 12:44:09;;;;;;;3.83;2.03;;;17.60;36.90;;;;;;4990060;28;20165;-81
2021/03/19 12:46:35;;;;;;;4.00;2.03;;;17.50;37.30;;;;;;4986913;28;20164;-81
2021/03/19 12:49:06;;;;;;;3.05;1.67;;;17.50;37.10;;;;;;5007177;28;20184;-80
2021/03/19 12:51:32;;;;;;;2.83;1.50;;;17.50;36.10;;;;;;4990546;28;20275;-80
2021/03/19 12:54:01;;;;;;;2.50;1.52;;;17.60;36.70;;;;;;4990912;28;20169;-80
2021/03/19 12:56:35;;;;;;;3.03;1.45;;;17.60;36.70;;;;;;5008515;28;20191;-80
2021/03/19 12:59:19;;;;;;;3.78;1.80;;;17.50;36.50;;;;;;4993701;28;20234;-81
2021/03/19 13:01:45;;;;;;;4.47;1.85;;;17.50;36.90;;;;;;4988133;28;20548;-80
2021/03/19 13:04:33;;;;;;;1.67;1.45;;;17.50;36.70;;;;;;4986376;28;20187;-81
2021/03/19 13:07:12;;;;;;;3.00;1.90;;;17.50;36.60;;;;;;4985164;28;20161;-82
2021/03/19 13:10:33;;;;;;;2.28;1.48;;;17.50;35.90;;;;;;4983933;28;20555;-82
2021/03/19 13:13:03;;;;;;;2.97;1.33;;;17.50;35.50;;;;;;4946543;28;20220;-82
2021/03/19 13:15:34;;;;;;;2.20;1.65;;;17.60;36.20;;;;;;4985716;28;20242;-82
2021/03/19 13:18:04;;;;;;;3.63;1.42;;;17.50;36.30;;;;;;4999616;28;20713;-82
2021/03/19 13:20:42;;;;;;;3.53;1.30;;;17.60;35.40;;;;;;4987952;28;20653;-82
2021/03/19 13:26:35;;;;;;;2.53;1.40;;;17.60;35.80;;;;;;4960547;28;20184;-82
2021/03/19 13:29:25;;;;;;;3.13;1.50;;;17.60;35.00;;;;;;4948414;29;20162;-82
2021/03/19 13:32:10;;;;;;;3.17;1.60;;;17.60;35.40;;;;;;4948220;29;20201;-82
2021/03/19 13:35:05;;;;;;;2.53;1.50;;;17.60;35.50;;;;;;4947333;29;20193;-81
2021/03/19 13:37:34;;;;;;;3.00;1.48;;;17.70;35.50;;;;;;4962552;29;20582;-82
2021/03/19 13:40:37;;;;;;;3.83;1.40;;;17.70;34.60;;;;;;4949988;29;20708;-81
2021/03/19 13:43:02;;;;;;;3.58;1.38;;;17.70;35.90;;;;;;4889459;29;20578;-81
2021/03/19 13:45:42;;;;;;;4.10;1.95;;;17.60;35.20;;;;;;4889712;29;20245;-82
2021/03/19 13:48:15;;;;;;;2.25;1.48;;;17.60;35.70;;;;;;4857578;29;20289;-81
2021/03/19 13:50:58;;;;;;;2.80;1.48;;;17.60;35.40;;;;;;4891343;29;20191;-82
2021/03/19 13:54:08;;;;;;;2.38;1.42;;;17.60;34.40;;;;;;4892502;29;20203;-81
2021/03/19 13:56:45;;;;;;;2.20;1.33;;;17.70;34.70;;;;;;4891985;29;20223;-82
2021/03/19 13:59:13;;;;;;;2.97;1.30;;;17.70;34.80;;;;;;4888817;29;20236;-82
2021/03/19 14:01:47;;;;;;;3.28;1.45;;;17.70;35.10;;;;;;4866602;29;20700;-83
2021/03/19 14:04:15;;;;;;;2.30;1.20;;;17.70;34.80;;;;;;4869679;29;20191;-79
2021/03/19 14:06:42;;;;;;;1.85;1.40;;;17.70;35.00;;;;;;4891326;29;20651;-80
2021/03/19 14:09:08;;;;;;;2.78;1.40;;;17.70;34.90;;;;;;4888438;29;20175;-82
2021/03/19 14:11:34;;;;;;;3.78;1.30;;;17.70;35.00;;;;;;4888329;29;20190;-82
2021/03/19 14:13:59;;;;;;;3.33;1.20;;;17.70;34.80;;;;;;4899999;29;20588;-83
2021/03/19 14:16:25;;;;;;;2.30;1.35;;;17.70;34.60;;;;;;4899324;29;20191;-82
2021/03/19 14:18:51;;;;;;;5.38;1.45;;;17.80;34.90;;;;;;4902247;28;20163;-82
2021/03/19 14:21:17;;;;;;;4.47;1.27;;;17.80;34.50;;;;;;5002084;28;20160;-79
2021/03/19 14:23:48;;;;;;;2.67;1.30;;;17.80;35.10;;;;;;5001737;28;20207;-83
2021/03/19 14:26:18;;;;;;;2.95;1.20;;;17.80;35.00;;;;;;4973421;28;20262;-81
2021/03/19 14:28:44;;;;;;;2.30;1.40;;;17.70;35.10;;;;;;5026836;23;20252;-81
2021/03/19 14:31:25;;;;;;;2.33;1.40;;;17.80;34.70;;;;;;4951680;28;20196;-82
2021/03/19 14:33:51;;;;;;;2.33;1.23;;;17.80;34.40;;;;;;4968387;28;20196;-82
2021/03/19 14:50:36;;;;;;;;;;;;;;;;;;;;;
2021/03/19 14:53:48;;;;;;;3.88;1.20;;;17.90;34.30;;;;;;4983453;28;20236;-82
2021/03/19 14:56:38;;;;;;;3.42;1.05;;;18.00;34.80;;;;;;4959074;29;20599;-80
2021/03/19 14:59:26;;;;;;;2.00;1.40;;;17.90;34.30;;;;;;4944622;29;20157;-80
2021/03/19 15:01:53;;;;;;;2.05;1.15;;;17.80;34.50;;;;;;4951086;29;20307;-81
2021/03/19 15:04:22;;;;;;;3.17;1.27;;;17.80;34.20;;;;;;4961182;29;20585;-80
2021/03/19 15:07:06;;;;;;;2.95;1.40;;;17.80;33.70;;;;;;4936660;29;20263;-81
2021/03/19 15:09:32;;;;;;;4.78;1.20;;;17.80;34.60;;;;;;4931895;29;20556;-80
2021/03/19 15:12:55;;;;;;;2.92;1.30;;;17.70;34.70;;;;;;4958841;29;20181;-80
2021/03/19 15:15:35;;;;;;;2.33;1.17;;;17.80;33.40;;;;;;4920267;29;20246;-81
2021/03/19 15:19:04;;;;;;;2.10;1.10;;;17.90;33.50;;;;;;4900993;29;20236;-81